Aérodrome :
LOGIN :

S'inscrire | Disclaimer

   EN    FR    IT 

 










Légende :    VFR   VFR Marginal   IFR   IFR Intensif   IFR Très Intensif
Visi : 
Plafond : 
>= 8 km
>= 3000ft
5 à 8 km
1000 à 3000 ft
1500m à 5 km
500 à 1000 ft
800 à 1500m
200 à 500 ft
< 800m
< 200 ft
Symboles :   Orages  Brouillard  Fortes neiges  Fortes précipitations  Vent > 20 kt
SIGMETs :   Divers  Orages  Givrage  Turbulence  Onde Orograph.  Cendres Volcan.






- Altitude de l'aérodrome : 138 ft
- Code IATA : BIO


LEBB - Bilbao

DERNIER METAR :
  • 230130Z AUTO 22014G25KT 180V280 9999 BKN068 15/06 Q0985

METARs EXPIRÉS :
  • 230100Z AUTO 22016G26KT 180V260 CAVOK 15/05 Q0984
  • 230030Z AUTO 22013G26KT 160V270 CAVOK 16/05 Q0984
  • 230000Z AUTO 21016G27KT 170V260 CAVOK 15/06 Q0984
  • 222330Z 20017G27KT 150V260 CAVOK 16/06 Q0984 NOSIG
  • 222300Z 21014G31KT 140V260 CAVOK 16/06 Q0984 NOSIG

TAF TAF LEBB
Valide du 23 à 00h jusqu'au 24 à 00h UTC


222300Z 2300/2324 22014G24KT 9999 SCT030 SCT040 TX13/2313Z TN09/2306Z
TEMPO 2300/2303 21018G34KT
BECMG 2302/2306 28020G30KT
TEMPO 2302/2315 30025G45KT
TEMPO 2303/2324 3000 RA SHRA SCT025TCU
PROB40
TEMPO 2306/2312 1500 +SHRA BKN025TCU



MET'MAP, la Météo Aéronautique d'un coup d'oeil ! - Copyright ORBIFLY Décembre 2007 - Disclaimer

ORBIFLY MET'MAP TEAM :

Programmation & Développement : Alexandra Zaïnal
Conception & Développement : Baudouin d'Aumeries
Co-Programmation & Développement : Marc-Olivier Méhu
Soutien technique & logistique : Manuel Goepfert

Contact : metmap@orbifly.com




SOURCES & CREDITS :

   NOAA